createdAt,value
2022-08-17T00:00:57.155Z,996.5
2022-08-17T00:01:58.161Z,996.5
2022-08-17T00:02:59.154Z,996.2
2022-08-17T00:04:00.194Z,996.4
2022-08-17T00:05:01.154Z,996.4
2022-08-17T00:06:02.155Z,996.3
2022-08-17T00:07:03.093Z,996.1
2022-08-17T00:08:04.136Z,996.4
2022-08-17T00:09:05.117Z,996.4
2022-08-17T00:10:06.137Z,996.4
2022-08-17T00:11:07.139Z,996.5
2022-08-17T00:12:42.353Z,996.4
2022-08-17T00:13:09.194Z,996.4
2022-08-17T00:14:10.182Z,996.4
2022-08-17T00:15:11.174Z,996.3
2022-08-17T00:16:12.154Z,996.3
2022-08-17T00:17:13.134Z,996.3
2022-08-17T00:18:58.142Z,996.3
2022-08-17T00:19:15.155Z,996.3
2022-08-17T00:20:16.163Z,996.3
2022-08-17T00:21:17.176Z,996.3
2022-08-17T00:22:33.519Z,996.3
2022-08-17T00:23:20.194Z,996.3
2022-08-17T00:24:21.154Z,996.3
2022-08-17T00:25:22.134Z,996.3
2022-08-17T00:26:34.763Z,996.4
2022-08-17T00:27:24.144Z,996.3
2022-08-17T00:28:25.213Z,996.3
2022-08-17T00:29:26.194Z,996.4
2022-08-17T00:30:27.175Z,996.3
2022-08-17T00:31:28.194Z,996.3
2022-08-17T00:33:10.172Z,996.4
2022-08-17T00:33:30.809Z,996.3
2022-08-17T00:34:31.233Z,996.4
2022-08-17T00:35:32.175Z,996.4
2022-08-17T00:36:33.154Z,996.4
2022-08-17T00:37:34.154Z,996.4
2022-08-17T00:38:35.194Z,996.4
2022-08-17T00:39:36.163Z,996.4
2022-08-17T00:40:39.773Z,996.4
2022-08-17T00:41:42.319Z,996.4
2022-08-17T00:42:39.173Z,996.4
2022-08-17T00:43:40.141Z,996.4
2022-08-17T00:44:41.202Z,996.4
2022-08-17T00:45:42.214Z,996.4
2022-08-17T00:46:43.758Z,996.4
2022-08-17T00:47:45.144Z,996.4
2022-08-17T00:48:46.129Z,996.4
2022-08-17T00:49:47.090Z,996.4
2022-08-17T00:50:48.194Z,996.4
2022-08-17T00:51:49.173Z,996.4
2022-08-17T00:52:50.441Z,996.4
2022-08-17T00:53:51.132Z,996.4
2022-08-17T00:54:52.117Z,996.4
2022-08-17T00:55:53.256Z,996.4
2022-08-17T00:56:54.115Z,996.4
2022-08-17T00:57:55.752Z,996.4
2022-08-17T00:58:56.166Z,996.4
2022-08-17T01:00:01.848Z,996.4
2022-08-17T01:04:00.268Z,996.4
2022-08-17T01:05:01.211Z,996.4
2022-08-17T01:06:02.254Z,996.4
2022-08-17T01:07:04.155Z,996.4
2022-08-17T01:08:05.175Z,996.4
2022-08-17T01:09:06.175Z,996.4
2022-08-17T01:10:07.235Z,996.4
2022-08-17T01:11:08.174Z,996.4
2022-08-17T01:12:09.175Z,996.4
2022-08-17T01:13:10.175Z,996.4
2022-08-17T01:14:11.223Z,996.4
2022-08-17T01:15:12.255Z,996.4
2022-08-17T01:16:13.255Z,996.4
2022-08-17T01:17:14.234Z,996.4
2022-08-17T01:18:15.176Z,996.3
2022-08-17T01:19:16.255Z,996.4
2022-08-17T01:20:17.577Z,996.3
2022-08-17T01:21:19.215Z,996.3
2022-08-17T01:22:20.174Z,996.3
2022-08-17T01:23:21.374Z,996.3
2022-08-17T01:24:22.176Z,996.3
2022-08-17T01:25:23.195Z,996.4
2022-08-17T01:26:24.174Z,996.3
2022-08-17T01:27:25.215Z,996.3
2022-08-17T01:28:33.769Z,996.3
2022-08-17T01:29:27.198Z,996.3
2022-08-17T01:30:57.613Z,996.3
2022-08-17T01:31:29.156Z,996.3
2022-08-17T01:32:30.255Z,996.2
2022-08-17T01:33:31.195Z,996.3
2022-08-17T01:34:32.784Z,996.2
2022-08-17T01:35:33.154Z,996.3
2022-08-17T01:36:34.197Z,996.2
2022-08-17T01:37:35.301Z,996.3
2022-08-17T01:38:36.194Z,996.3
2022-08-17T01:39:37.274Z,996.3
2022-08-17T01:40:38.214Z,996.2
2022-08-17T01:41:39.215Z,996.2
2022-08-17T01:42:40.176Z,996.2
2022-08-17T01:43:41.214Z,996.3
2022-08-17T01:44:42.156Z,996.2
2022-08-17T01:45:43.165Z,996.2
2022-08-17T01:46:44.328Z,996.3
2022-08-17T01:47:45.256Z,996.2
2022-08-17T01:48:46.174Z,996.2
2022-08-17T01:49:47.154Z,996.3
2022-08-17T01:50:48.198Z,996.3
2022-08-17T01:51:49.236Z,996.2
2022-08-17T01:52:50.362Z,996.3
2022-08-17T01:53:51.234Z,996.3
2022-08-17T01:54:52.195Z,996.3
2022-08-17T01:55:53.175Z,996.3
2022-08-17T01:56:54.174Z,996.3
2022-08-17T01:57:55.241Z,996.3
2022-08-17T01:58:56.234Z,996.3
2022-08-17T01:59:57.195Z,996.3
2022-08-17T02:00:59.812Z,996.3
2022-08-17T02:01:59.258Z,996.3
2022-08-17T02:03:00.214Z,996.3
2022-08-17T02:04:01.829Z,996.3
2022-08-17T02:05:02.279Z,996.3
2022-08-17T02:06:05.163Z,996.3
2022-08-17T02:07:05.215Z,996.3
2022-08-17T02:08:06.198Z,996.3
2022-08-17T02:09:07.215Z,996.3
2022-08-17T02:10:10.999Z,996.3
2022-08-17T02:11:11.216Z,996.3
2022-08-17T02:12:38.622Z,996.3
2022-08-17T02:13:11.275Z,996.3
2022-08-17T02:14:12.214Z,996.2
2022-08-17T02:15:13.214Z,996.3
2022-08-17T02:16:14.234Z,996.2
2022-08-17T02:17:15.234Z,996.3
2022-08-17T02:18:16.474Z,996.2
2022-08-17T02:19:18.215Z,996.2
2022-08-17T02:20:42.271Z,996.2
2022-08-17T02:21:20.215Z,996.2
2022-08-17T02:22:21.242Z,996.2
2022-08-17T02:23:22.236Z,996.2
2022-08-17T02:24:58.061Z,996.2
2022-08-17T02:25:24.235Z,995.9
2022-08-17T02:26:25.740Z,996.2
2022-08-17T02:27:26.234Z,996.2
2022-08-17T02:28:27.234Z,996.2
2022-08-17T02:29:28.243Z,996.2
2022-08-17T02:30:50.255Z,996.2
2022-08-17T02:31:30.235Z,996.2
2022-08-17T02:32:31.214Z,996.2
2022-08-17T02:33:33.768Z,996.2
2022-08-17T02:34:33.213Z,996.2
2022-08-17T02:35:34.257Z,996.2
2022-08-17T02:36:35.234Z,996.1
2022-08-17T02:37:36.257Z,996.1
2022-08-17T02:38:37.294Z,996.2
2022-08-17T02:39:38.302Z,996.1
2022-08-17T02:40:39.234Z,996.1
2022-08-17T02:41:40.254Z,996.2
2022-08-17T02:42:41.294Z,996.1
2022-08-17T02:43:42.275Z,996.2
2022-08-17T02:44:43.235Z,996.2
2022-08-17T02:45:44.255Z,996.2
2022-08-17T02:46:45.314Z,996.2
2022-08-17T02:47:46.279Z,996.2
2022-08-17T02:48:47.255Z,996.2
2022-08-17T02:49:54.382Z,996.2
2022-08-17T02:50:49.234Z,996.2
2022-08-17T02:51:50.297Z,996.2
2022-08-17T02:52:55.236Z,996.2
2022-08-17T02:53:52.279Z,996.2
2022-08-17T02:54:53.274Z,996.2
2022-08-17T02:55:54.277Z,996.2
2022-08-17T02:56:55.305Z,996.2
2022-08-17T02:57:56.214Z,996.2
2022-08-17T02:58:57.255Z,996.2
2022-08-17T02:59:58.255Z,996.2
2022-08-17T03:00:59.215Z,996.2
2022-08-17T03:02:00.314Z,996.3
2022-08-17T03:03:01.254Z,996.3
2022-08-17T03:04:02.234Z,996.3
2022-08-17T03:05:03.276Z,996.3
2022-08-17T03:06:04.294Z,996.3
2022-08-17T03:07:05.254Z,996.3
2022-08-17T03:08:06.276Z,996.3
2022-08-17T03:09:07.275Z,996.2
2022-08-17T03:10:08.256Z,996.2
2022-08-17T03:11:09.275Z,996.3
2022-08-17T03:12:10.255Z,996.3
2022-08-17T03:13:11.275Z,996.3
2022-08-17T03:14:12.394Z,996.3
2022-08-17T03:15:14.246Z,996.3
2022-08-17T03:16:15.255Z,996.3
2022-08-17T03:17:17.315Z,996.3
2022-08-17T03:18:18.893Z,996.3
2022-08-17T03:19:18.315Z,996.2
2022-08-17T03:20:19.255Z,996.3
2022-08-17T03:21:20.235Z,996.3
2022-08-17T03:22:34.730Z,996.3
2022-08-17T03:23:23.913Z,996.2
2022-08-17T03:24:25.195Z,996.3
2022-08-17T03:25:24.234Z,996.3
2022-08-17T03:26:25.274Z,996.3
2022-08-17T03:27:26.296Z,996.3
2022-08-17T03:28:27.655Z,996.3
2022-08-17T03:29:29.274Z,996.3
2022-08-17T03:30:30.295Z,996.3
2022-08-17T03:31:31.274Z,996.3
2022-08-17T03:32:32.334Z,996.4
2022-08-17T03:33:34.374Z,996.4
2022-08-17T03:34:36.276Z,996.4
2022-08-17T03:35:37.258Z,996.4
2022-08-17T03:36:38.254Z,996.4
2022-08-17T03:37:39.254Z,996.4
2022-08-17T03:38:40.294Z,996.4
2022-08-17T03:39:41.333Z,996.4
2022-08-17T03:40:56.014Z,996.5
2022-08-17T03:41:43.323Z,996.4
2022-08-17T03:42:44.393Z,996.5
2022-08-17T03:43:45.258Z,996.5
2022-08-17T03:44:46.323Z,996.5
2022-08-17T03:45:47.243Z,996.5
2022-08-17T03:46:48.336Z,996.5
2022-08-17T03:47:49.298Z,996.5
2022-08-17T03:48:50.276Z,996.5
2022-08-17T03:49:51.275Z,996.5
2022-08-17T03:50:52.254Z,996.6
2022-08-17T03:51:53.277Z,996.5
2022-08-17T03:52:54.332Z,996.6
2022-08-17T03:53:55.294Z,996.6
2022-08-17T03:54:56.281Z,996.6
2022-08-17T03:55:57.298Z,996.6
2022-08-17T03:56:58.355Z,996.6
2022-08-17T03:57:59.335Z,996.5
2022-08-17T03:59:00.314Z,996.5
2022-08-17T04:00:01.337Z,996.6
2022-08-17T04:01:02.321Z,996.6
2022-08-17T04:02:03.335Z,996.6
2022-08-17T04:03:04.305Z,996.6
2022-08-17T04:04:05.282Z,996.6
2022-08-17T04:05:06.316Z,996.6
2022-08-17T04:06:07.275Z,996.6
2022-08-17T04:07:08.294Z,996.6
2022-08-17T04:08:09.294Z,996.5
2022-08-17T04:09:10.275Z,996.6
2022-08-17T04:10:11.284Z,996.6
2022-08-17T04:11:12.314Z,996.6
2022-08-17T04:12:13.335Z,996
2022-08-17T04:13:14.315Z,996.5
2022-08-17T04:14:15.235Z,996.6
2022-08-17T04:15:16.376Z,996.6
2022-08-17T04:16:17.275Z,996.6
2022-08-17T04:17:18.315Z,996.6
2022-08-17T04:18:19.574Z,996.6
2022-08-17T04:19:21.295Z,996.7
2022-08-17T04:20:22.315Z,996.6
2022-08-17T04:21:23.256Z,996.6
2022-08-17T04:22:29.910Z,996.6
2022-08-17T04:23:25.295Z,996.6
2022-08-17T04:24:26.274Z,996.7
2022-08-17T04:25:27.305Z,996.7
2022-08-17T04:26:52.071Z,996.7
2022-08-17T04:27:29.374Z,996.7
2022-08-17T04:28:30.283Z,996.7
2022-08-17T04:29:50.902Z,996.7
2022-08-17T04:30:32.355Z,996.7
2022-08-17T04:31:34.395Z,996.8
2022-08-17T04:32:59.551Z,996.8
2022-08-17T04:33:36.315Z,996.8
2022-08-17T04:34:37.278Z,996.8
2022-08-17T04:35:38.318Z,996.8
2022-08-17T04:36:39.361Z,996.8
2022-08-17T04:37:40.296Z,996.8
2022-08-17T04:38:41.276Z,996.8
2022-08-17T04:39:42.384Z,996.8
2022-08-17T04:40:43.296Z,996.8
2022-08-17T04:41:44.374Z,996.8
2022-08-17T04:42:45.323Z,996.8
2022-08-17T04:43:46.363Z,996.9
2022-08-17T04:44:47.356Z,996.7
2022-08-17T04:45:51.421Z,996.7
2022-08-17T04:46:49.396Z,996.8
2022-08-17T04:47:50.324Z,996.8
2022-08-17T04:48:51.316Z,996.9
2022-08-17T04:49:52.355Z,996.8
2022-08-17T04:50:53.355Z,996.8
2022-08-17T04:51:54.772Z,996.8
2022-08-17T04:52:55.568Z,996.8
2022-08-17T04:53:56.315Z,996.8
2022-08-17T04:54:57.296Z,996.8
2022-08-17T04:55:58.337Z,996.8
2022-08-17T04:56:59.334Z,996.8
2022-08-17T04:58:00.335Z,996.8
2022-08-17T04:59:01.415Z,996.8
2022-08-17T05:00:02.432Z,996.8
2022-08-17T05:01:03.429Z,996.8
2022-08-17T05:02:05.383Z,996.8
2022-08-17T05:03:06.415Z,996.9
2022-08-17T05:04:18.361Z,996.9
2022-08-17T05:05:08.355Z,996.9
2022-08-17T05:06:09.295Z,996.6
2022-08-17T05:07:10.338Z,996.6
2022-08-17T05:08:11.415Z,996.7
2022-08-17T05:09:12.394Z,996.9
2022-08-17T05:10:13.299Z,996.5
2022-08-17T05:11:14.336Z,996.8
2022-08-17T05:12:15.335Z,996.8
2022-08-17T05:13:16.394Z,996.9
2022-08-17T05:14:17.435Z,996.9
2022-08-17T05:15:19.484Z,996.9
2022-08-17T05:16:21.378Z,996.9
2022-08-17T05:17:22.423Z,996.9
2022-08-17T05:18:24.489Z,996.9
2022-08-17T05:19:24.444Z,996.9
2022-08-17T05:20:25.383Z,996.9
2022-08-17T05:21:26.422Z,996.9
2022-08-17T05:22:27.373Z,996.9
2022-08-17T05:23:28.669Z,996.9
2022-08-17T05:24:38.778Z,996.9
2022-08-17T05:25:31.655Z,996.9
2022-08-17T05:26:31.375Z,996.8
2022-08-17T05:27:32.925Z,996.9
2022-08-17T05:28:33.339Z,996.8
2022-08-17T05:29:35.674Z,996.9
2022-08-17T05:30:35.383Z,996.9
2022-08-17T05:31:36.418Z,996.8
2022-08-17T05:32:40.271Z,996.8
2022-08-17T05:33:42.660Z,996.8
2022-08-17T05:34:40.445Z,996.8
2022-08-17T05:35:41.414Z,996.8
2022-08-17T05:36:44.447Z,996.8
2022-08-17T05:37:43.335Z,996.8
2022-08-17T05:38:44.396Z,996.8
2022-08-17T05:39:45.370Z,996.8
2022-08-17T05:40:46.403Z,996.8
2022-08-17T05:41:47.347Z,996.7
2022-08-17T05:42:48.416Z,996.7
2022-08-17T05:43:51.867Z,996.7
2022-08-17T05:44:50.363Z,996.7
2022-08-17T05:45:55.008Z,996.7
2022-08-17T05:46:52.476Z,996.7
2022-08-17T05:47:53.404Z,996.8
2022-08-17T05:48:54.384Z,996.8
2022-08-17T05:49:56.364Z,996.7
2022-08-17T05:50:57.457Z,996.8
2022-08-17T05:51:58.337Z,996.8
2022-08-17T05:52:59.404Z,996.8
2022-08-17T05:54:00.377Z,996.8
2022-08-17T05:55:01.520Z,996.8
2022-08-17T05:56:02.418Z,996.8
2022-08-17T05:57:03.435Z,996.8
2022-08-17T05:58:05.503Z,996.9
2022-08-17T05:59:07.375Z,996.9
2022-08-17T06:00:08.465Z,996.9
2022-08-17T06:01:09.394Z,996.9
2022-08-17T06:02:10.431Z,996.9
2022-08-17T06:03:11.436Z,996.9
2022-08-17T06:04:12.463Z,996.9
2022-08-17T06:05:13.397Z,996.9
2022-08-17T06:06:14.444Z,996.9
2022-08-17T06:07:15.479Z,996.9
2022-08-17T06:08:16.398Z,997
2022-08-17T06:09:21.272Z,997
2022-08-17T06:10:18.415Z,997
2022-08-17T06:11:19.942Z,997
2022-08-17T06:12:20.322Z,997
2022-08-17T06:13:21.435Z,997
2022-08-17T06:14:22.436Z,997
2022-08-17T06:15:23.435Z,997
2022-08-17T06:16:26.032Z,997
2022-08-17T06:17:25.357Z,997
2022-08-17T06:18:26.456Z,997
2022-08-17T06:19:27.431Z,997
2022-08-17T06:20:28.433Z,997
2022-08-17T06:21:32.193Z,997.1
2022-08-17T06:22:31.371Z,997.1
2022-08-17T06:23:32.593Z,997
2022-08-17T06:24:34.397Z,997
2022-08-17T06:25:35.439Z,997.1
2022-08-17T06:26:38.402Z,997
2022-08-17T06:27:37.377Z,997
2022-08-17T06:28:38.415Z,997
2022-08-17T06:29:39.482Z,997
2022-08-17T06:31:00.473Z,997
2022-08-17T06:31:41.518Z,997
2022-08-17T06:32:42.390Z,997
2022-08-17T06:33:43.414Z,997.1
2022-08-17T06:34:44.437Z,997.1
2022-08-17T06:35:45.498Z,997.1
2022-08-17T06:36:46.436Z,997
2022-08-17T06:37:47.465Z,997.1
2022-08-17T06:38:48.423Z,997.1
2022-08-17T06:39:52.685Z,997.1
2022-08-17T06:40:54.400Z,997.1
2022-08-17T06:41:55.417Z,997.1
2022-08-17T06:43:02.951Z,997.1
2022-08-17T06:43:57.344Z,997.1
2022-08-17T06:44:58.421Z,996.9
2022-08-17T06:45:59.456Z,997.2
2022-08-17T06:47:00.487Z,997.2
2022-08-17T06:48:01.445Z,997.2
2022-08-17T06:49:02.664Z,997.2
2022-08-17T06:50:04.516Z,997.2
2022-08-17T06:51:06.529Z,997.2
2022-08-17T06:52:07.459Z,997.2
2022-08-17T06:53:08.340Z,997.2
2022-08-17T06:54:09.453Z,997.2
2022-08-17T06:55:17.906Z,997.2
2022-08-17T06:56:11.487Z,997.1
2022-08-17T06:57:12.517Z,997.1
2022-08-17T06:58:16.060Z,997.2
2022-08-17T06:59:15.559Z,997.2
2022-08-17T07:00:17.541Z,997.3
2022-08-17T07:01:19.670Z,997.3
2022-08-17T07:02:29.023Z,997.3
2022-08-17T07:03:23.530Z,997.2
2022-08-17T07:04:25.421Z,997.3
2022-08-17T07:05:26.520Z,997.2
2022-08-17T07:06:28.544Z,997.2
2022-08-17T07:07:30.501Z,997.3
2022-08-17T07:08:34.829Z,997.3
2022-08-17T07:09:34.483Z,997.3
2022-08-17T07:10:36.501Z,997.3
2022-08-17T07:11:38.681Z,997.3
2022-08-17T07:12:40.517Z,997.3
2022-08-17T07:13:42.482Z,997.3
2022-08-17T07:14:44.461Z,997.3
2022-08-17T07:15:45.542Z,997.3
2022-08-17T07:16:47.541Z,997.3
2022-08-17T07:17:49.520Z,997.4
2022-08-17T07:18:51.666Z,997.4
2022-08-17T07:19:53.330Z,997.4
2022-08-17T07:20:54.444Z,997.4
2022-08-17T07:21:55.500Z,997.4
2022-08-17T07:22:57.908Z,997.4
2022-08-17T07:23:57.491Z,997.4
2022-08-17T07:24:58.557Z,997.4
2022-08-17T07:26:00.502Z,997.4
2022-08-17T07:27:01.535Z,997.4
2022-08-17T07:28:04.259Z,997.4
2022-08-17T07:29:05.580Z,997.4
2022-08-17T07:30:10.514Z,997.4
2022-08-17T07:31:09.462Z,997.4
2022-08-17T07:32:10.469Z,997.4
2022-08-17T07:33:12.623Z,997.4
2022-08-17T07:34:12.542Z,997.4
2022-08-17T07:35:15.099Z,997.5
2022-08-17T07:36:14.501Z,997.5
2022-08-17T07:37:15.481Z,997.5
2022-08-17T07:38:24.103Z,997.5
2022-08-17T07:39:18.546Z,997.1
2022-08-17T07:40:20.644Z,997.4
2022-08-17T07:41:22.506Z,997.5
2022-08-17T07:42:23.613Z,997.5
2022-08-17T07:43:24.520Z,997.5
2022-08-17T07:44:25.482Z,997.6
2022-08-17T07:45:26.481Z,997.6
2022-08-17T07:46:27.541Z,997.6
2022-08-17T07:47:29.460Z,997.6
2022-08-17T07:48:30.461Z,997.6
2022-08-17T07:49:31.675Z,997.6
2022-08-17T07:50:32.520Z,997.5
2022-08-17T07:51:34.561Z,997.6
2022-08-17T07:52:48.761Z,997.5
2022-08-17T07:53:38.481Z,997.5
2022-08-17T07:54:39.580Z,997.5
2022-08-17T07:55:41.544Z,997.5
2022-08-17T07:56:42.521Z,997.5
2022-08-17T07:57:43.714Z,997.5
2022-08-17T07:58:45.522Z,997.5
2022-08-17T07:59:46.491Z,997.5
2022-08-17T08:00:47.522Z,997.5
2022-08-17T08:01:48.543Z,997.5
2022-08-17T08:02:49.501Z,997.5
2022-08-17T08:03:52.706Z,997.5
2022-08-17T08:05:01.289Z,997.5
2022-08-17T08:05:54.542Z,997.5
2022-08-17T08:06:56.602Z,997.5
2022-08-17T08:07:58.522Z,997.5
2022-08-17T08:08:59.543Z,997.5
2022-08-17T08:10:01.519Z,997.5
2022-08-17T08:11:02.502Z,997.5
2022-08-17T08:12:03.619Z,997.5
2022-08-17T08:13:05.642Z,997.5
2022-08-17T08:14:07.561Z,997.5
2022-08-17T08:15:08.570Z,997.6
2022-08-17T08:16:10.501Z,997.5
2022-08-17T08:17:11.531Z,997.5
2022-08-17T08:18:12.544Z,997.5
2022-08-17T08:19:17.207Z,997.5
2022-08-17T08:20:19.755Z,997.5
2022-08-17T08:21:17.541Z,997.5
2022-08-17T08:22:19.580Z,997.5
2022-08-17T08:23:21.549Z,997.5
2022-08-17T08:24:22.521Z,997.5
2022-08-17T08:25:23.562Z,997.5
2022-08-17T08:26:25.600Z,997.5
2022-08-17T08:27:27.488Z,997.5
2022-08-17T08:28:28.522Z,997.5
2022-08-17T08:29:29.560Z,997.5
2022-08-17T08:30:33.066Z,997.5
2022-08-17T08:31:32.581Z,997.5
2022-08-17T08:32:34.602Z,997.5
2022-08-17T08:33:36.608Z,997.5
2022-08-17T08:34:44.689Z,997.6
2022-08-17T08:35:40.562Z,997.6
2022-08-17T08:36:57.161Z,997.6
2022-08-17T08:37:43.310Z,997.6
2022-08-17T08:38:43.541Z,997.6
2022-08-17T08:39:44.584Z,997.6
2022-08-17T08:40:45.537Z,997.6
2022-08-17T08:41:46.521Z,997.6
2022-08-17T08:42:47.540Z,997.6
2022-08-17T08:43:52.772Z,997.6
2022-08-17T08:44:59.316Z,997.6
2022-08-17T08:45:51.541Z,997.6
2022-08-17T08:46:52.615Z,997.6
2022-08-17T08:47:54.561Z,997.6
2022-08-17T08:48:56.042Z,997.6
2022-08-17T08:50:03.729Z,997.4
2022-08-17T08:50:58.662Z,997.6
2022-08-17T08:52:02.601Z,997.6
2022-08-17T08:53:04.641Z,997.6
2022-08-17T08:54:06.621Z,997.6
2022-08-17T08:55:08.581Z,997.6
2022-08-17T08:56:10.542Z,997.5
2022-08-17T08:57:24.087Z,997.5
2022-08-17T08:58:30.874Z,997.5
2022-08-17T08:59:14.522Z,997.6
2022-08-17T09:00:15.660Z,997.5
2022-08-17T09:01:17.718Z,997.6
2022-08-17T09:02:19.744Z,997.6
2022-08-17T09:03:28.056Z,997.6
2022-08-17T09:04:25.333Z,997.5
2022-08-17T09:05:24.602Z,997.5
2022-08-17T09:06:32.373Z,997.5
2022-08-17T09:07:38.384Z,997.5
2022-08-17T09:08:39.563Z,997.5
2022-08-17T09:09:40.522Z,997.5
2022-08-17T09:10:41.621Z,997.5
2022-08-17T09:12:01.633Z,997.5
2022-08-17T09:12:45.601Z,997.5
2022-08-17T09:13:54.249Z,997.5
2022-08-17T09:14:49.554Z,997.6
2022-08-17T09:15:50.603Z,997.6
2022-08-17T09:16:51.542Z,997.6
2022-08-17T09:18:03.656Z,997.6
2022-08-17T09:18:59.508Z,997.6
2022-08-17T09:19:55.601Z,997.5
2022-08-17T09:20:57.601Z,997.6
2022-08-17T09:22:03.691Z,997.6
2022-08-17T09:23:05.690Z,997.6
2022-08-17T09:24:07.663Z,997.6
2022-08-17T09:25:09.553Z,997.6
2022-08-17T09:26:10.582Z,997.6
2022-08-17T09:27:11.545Z,997.5
2022-08-17T09:28:12.770Z,997.5
2022-08-17T09:29:14.643Z,997.5
2022-08-17T09:30:16.775Z,997.6
2022-08-17T09:31:18.662Z,997.5
2022-08-17T09:32:20.623Z,997.6
2022-08-17T09:33:22.686Z,997.5
2022-08-17T09:34:24.960Z,997.5
2022-08-17T09:35:32.871Z,997.5
2022-08-17T09:36:26.560Z,997.5
2022-08-17T09:37:27.583Z,997.5
2022-08-17T09:38:32.256Z,997.5
2022-08-17T09:39:30.793Z,997.5
2022-08-17T09:40:32.721Z,997.5
2022-08-17T09:41:34.561Z,997.5
2022-08-17T09:42:35.560Z,997.5
2022-08-17T09:43:36.633Z,997.5
2022-08-17T09:44:38.602Z,997.5
2022-08-17T09:45:39.608Z,997.5
2022-08-17T09:46:40.729Z,997.6
2022-08-17T09:47:42.527Z,997.5
2022-08-17T09:48:43.661Z,997.5
2022-08-17T09:49:45.641Z,997.6
2022-08-17T09:50:55.876Z,997.5
2022-08-17T09:51:48.669Z,997.5
2022-08-17T09:52:50.682Z,997.6
2022-08-17T09:53:52.660Z,997.6
2022-08-17T09:54:54.941Z,997.6
2022-08-17T09:55:56.688Z,997.6
2022-08-17T09:57:18.358Z,997.6
2022-08-17T09:58:00.573Z,997.6
2022-08-17T09:59:01.621Z,997.6
2022-08-17T10:00:02.908Z,997.6
2022-08-17T10:01:04.668Z,997.6
2022-08-17T10:02:06.681Z,997.6
2022-08-17T10:03:08.662Z,997.6
2022-08-17T10:04:10.651Z,997.6
2022-08-17T10:05:11.660Z,997.6
2022-08-17T10:06:13.581Z,997.5
2022-08-17T10:07:14.642Z,996.9
2022-08-17T10:08:15.681Z,997.4
2022-08-17T10:09:17.641Z,997.4
2022-08-17T10:10:19.760Z,997.5
2022-08-17T10:11:21.701Z,997.5
2022-08-17T10:12:23.556Z,997.5
2022-08-17T10:13:24.699Z,997.5
2022-08-17T10:14:36.221Z,997.5
2022-08-17T10:15:28.709Z,997.5
2022-08-17T10:16:30.745Z,997.5
2022-08-17T10:17:32.801Z,997.5
2022-08-17T10:18:34.641Z,997.6
2022-08-17T10:19:36.705Z,997.6
2022-08-17T10:20:38.721Z,997.6
2022-08-17T10:21:40.640Z,997.5
2022-08-17T10:22:42.537Z,997.5
2022-08-17T10:23:43.623Z,997.5
2022-08-17T10:25:02.340Z,997.4
2022-08-17T10:25:54.945Z,997.5
2022-08-17T10:26:55.371Z,997.5
2022-08-17T10:27:50.703Z,997.6
2022-08-17T10:28:52.663Z,997.5
2022-08-17T10:29:53.641Z,997.6
2022-08-17T10:31:05.429Z,997.5
2022-08-17T10:31:56.666Z,997.5
2022-08-17T10:32:58.668Z,997.5
2022-08-17T10:34:00.625Z,997.5
2022-08-17T10:35:02.728Z,997.5
2022-08-17T10:36:08.779Z,997.5
2022-08-17T10:37:06.663Z,997.6
2022-08-17T10:38:08.621Z,997.5
2022-08-17T10:39:10.621Z,997.6
2022-08-17T10:40:11.649Z,997.6
2022-08-17T10:41:12.656Z,997.6
2022-08-17T10:42:14.686Z,997.6
2022-08-17T10:43:16.661Z,997.6
2022-08-17T10:44:36.877Z,997.6
2022-08-17T10:45:19.650Z,997.6
2022-08-17T10:46:30.775Z,997.6
2022-08-17T10:47:22.600Z,997.6
2022-08-17T10:48:23.720Z,997.6
2022-08-17T10:49:25.649Z,997.6
2022-08-17T10:50:27.610Z,997.6
2022-08-17T10:51:28.648Z,997.6
2022-08-17T10:52:33.219Z,997.6
2022-08-17T10:53:34.607Z,997.6
2022-08-17T10:54:36.641Z,997.6
2022-08-17T10:55:37.660Z,997.9
2022-08-17T10:56:38.661Z,997.8
2022-08-17T10:57:40.640Z,997.7
2022-08-17T10:58:42.620Z,997.7
2022-08-17T10:59:43.641Z,997.7
2022-08-17T11:00:44.760Z,996.8
2022-08-17T11:01:46.742Z,997.4
2022-08-17T11:02:48.901Z,997.6
2022-08-17T11:03:50.641Z,997.6
2022-08-17T11:04:51.621Z,997.6
2022-08-17T11:05:52.723Z,997.6
2022-08-17T11:06:54.585Z,997.6
2022-08-17T11:07:56.655Z,997.6
2022-08-17T11:08:58.661Z,997.7
2022-08-17T11:10:00.699Z,997.6
2022-08-17T11:11:02.781Z,997.6
2022-08-17T11:12:04.692Z,997.6
2022-08-17T11:13:06.659Z,997.6
2022-08-17T11:14:08.624Z,997.5
2022-08-17T11:15:09.688Z,997.5
2022-08-17T11:16:11.644Z,997.5
2022-08-17T11:17:12.663Z,997.5
2022-08-17T11:18:13.641Z,997.5
2022-08-17T11:19:15.720Z,997.5
2022-08-17T11:20:17.688Z,997.5
2022-08-17T11:21:19.640Z,997.5
2022-08-17T11:22:20.599Z,997.5
2022-08-17T11:23:21.659Z,997.5
2022-08-17T11:24:22.717Z,997.5
2022-08-17T11:25:24.641Z,997.5
2022-08-17T11:26:25.648Z,997.5
2022-08-17T11:27:27.647Z,997.5
2022-08-17T11:28:28.681Z,997.4
2022-08-17T11:29:30.767Z,997.4
2022-08-17T11:30:32.740Z,997.4
2022-08-17T11:31:38.205Z,997.4
2022-08-17T11:32:36.639Z,997.4
2022-08-17T11:33:38.699Z,997.5
2022-08-17T11:34:40.774Z,997.4
2022-08-17T11:35:42.610Z,997.4
2022-08-17T11:36:43.695Z,997.4
2022-08-17T11:37:45.664Z,997.4
2022-08-17T11:38:47.642Z,997.4
2022-08-17T11:39:50.065Z,997.4
2022-08-17T11:40:51.639Z,997.4
2022-08-17T11:41:52.644Z,997.3
2022-08-17T11:42:54.660Z,997.3
2022-08-17T11:43:55.728Z,997.3
2022-08-17T11:44:57.739Z,997.3
2022-08-17T11:45:59.727Z,997.3
2022-08-17T11:47:01.681Z,997
2022-08-17T11:48:26.371Z,997.3
2022-08-17T11:49:05.749Z,997.3
2022-08-17T11:50:07.754Z,997.3
2022-08-17T11:51:09.660Z,997.3
2022-08-17T11:52:10.648Z,997.3
2022-08-17T11:53:11.659Z,997.1
2022-08-17T11:54:32.062Z,997.3
2022-08-17T11:55:34.323Z,997.3
2022-08-17T11:56:16.759Z,997.3
2022-08-17T11:57:18.745Z,997.3
2022-08-17T11:58:20.700Z,997.2
2022-08-17T11:59:22.679Z,997.2
2022-08-17T12:00:23.723Z,997.2
2022-08-17T12:01:25.939Z,997.2
2022-08-17T12:02:27.660Z,997.2
2022-08-17T12:03:28.794Z,997.2
2022-08-17T12:04:30.716Z,997.2
2022-08-17T12:05:31.661Z,997.2
2022-08-17T12:06:32.760Z,997.2
2022-08-17T12:07:34.639Z,997.1
2022-08-17T12:08:35.699Z,997.1
2022-08-17T12:09:37.680Z,997.1
2022-08-17T12:10:39.739Z,997.1
2022-08-17T12:11:54.838Z,997.1
2022-08-17T12:12:43.782Z,997.1
2022-08-17T12:13:45.694Z,997.1
2022-08-17T12:15:12.369Z,997.2
2022-08-17T12:15:49.714Z,997.2
2022-08-17T12:16:50.700Z,997.2
2022-08-17T12:17:52.316Z,997.2
2022-08-17T12:18:53.719Z,997.2
2022-08-17T12:19:54.765Z,997.2
2022-08-17T12:20:56.946Z,997.2
2022-08-17T12:21:57.659Z,997.2
2022-08-17T12:22:58.640Z,997.2
2022-08-17T12:24:00.673Z,997.2
2022-08-17T12:25:01.619Z,997.2
2022-08-17T12:26:02.753Z,997.1
2022-08-17T12:27:04.731Z,997.2
2022-08-17T12:28:07.753Z,997.1
2022-08-17T12:29:09.290Z,997.2
2022-08-17T12:30:09.779Z,997.2
2022-08-17T12:31:11.813Z,997.1
2022-08-17T12:32:13.748Z,997.1
2022-08-17T12:33:24.947Z,997.1
2022-08-17T12:34:17.758Z,997
2022-08-17T12:35:19.740Z,997
2022-08-17T12:36:20.788Z,997.1
2022-08-17T12:37:22.699Z,997.1
2022-08-17T12:38:32.921Z,997.1
2022-08-17T12:39:25.708Z,997.1
2022-08-17T12:40:36.503Z,997.2
2022-08-17T12:41:37.699Z,997.1
2022-08-17T12:42:38.740Z,997.2
2022-08-17T12:43:40.798Z,997.2
2022-08-17T12:44:46.295Z,997.1
2022-08-17T12:45:44.662Z,997.2
2022-08-17T12:46:45.739Z,997.2
2022-08-17T12:47:47.679Z,997.2
2022-08-17T12:48:55.134Z,997.2
2022-08-17T12:49:50.763Z,997.2
2022-08-17T12:50:52.720Z,997.2
2022-08-17T12:51:53.700Z,997.2
2022-08-17T12:52:57.427Z,997.1
2022-08-17T12:53:55.814Z,997.2
2022-08-17T12:54:57.700Z,997.2
2022-08-17T12:55:58.771Z,997.2
2022-08-17T12:56:59.738Z,997.2
2022-08-17T12:58:02.304Z,997.1
2022-08-17T12:59:03.759Z,997.2
2022-08-17T13:00:05.880Z,996.8
2022-08-17T13:01:07.828Z,997.1
2022-08-17T13:02:09.831Z,997.1
2022-08-17T13:03:12.788Z,997.1
2022-08-17T13:04:13.719Z,997.1
2022-08-17T13:05:14.740Z,997.1
2022-08-17T13:06:16.707Z,997.1
2022-08-17T13:07:17.720Z,997.1
2022-08-17T13:08:18.829Z,997.1
2022-08-17T13:09:20.680Z,997.1
2022-08-17T13:10:21.759Z,997.1
2022-08-17T13:11:23.766Z,997.1
2022-08-17T13:12:25.779Z,997
2022-08-17T13:13:27.820Z,997
2022-08-17T13:14:29.805Z,997
2022-08-17T13:15:31.757Z,997